DLH1AN EDDS-EDDF
Flight info
| Callsign | DLH1AN |
|---|---|
| Flight time | 0h 24m |
| Altitude | 20000 |
| Route | ETASA2H ETASA T163 SPESA SPESA5C |
| Aircraft | A319/M-SDE3FGHIRWY/LB1 |
Departure
| Time | 2026-04-15 12:59 |
|---|---|
| Airport | Stuttgart Airport (EDDS) |
Arrival
| Time | 2026-04-15 13:23 |
|---|---|
| Airport | Frankfurt Main Airport (EDDF) |
| Time | Latitude | Longitude | Altitude | Speed | Heading |
|---|---|---|---|---|---|
| 2026-04-15 12:37 | 48.68916 | 9.19512 | 1315 ft | 0 kts | 344° |
| 2026-04-15 12:37 | 48.68915 | 9.19512 | 1315 ft | 0 kts | 344° |
| 2026-04-15 12:51 | 48.68905 | 9.19517 | 1314 ft | 4 kts | 344° |
| 2026-04-15 12:52 | 48.68879 | 9.19528 | 1313 ft | 4 kts | 344° |
| 2026-04-15 12:52 | 48.68854 | 9.19538 | 1312 ft | 4 kts | 5° |
| 2026-04-15 12:52 | 48.68835 | 9.19522 | 1311 ft | 4 kts | 64° |
| 2026-04-15 12:52 | 48.68828 | 9.19493 | 1312 ft | 3 kts | 74° |
| 2026-04-15 12:53 | 48.68820 | 9.19453 | 1312 ft | 4 kts | 74° |
| 2026-04-15 12:53 | 48.68814 | 9.19420 | 1313 ft | 1 kts | 74° |
| 2026-04-15 12:53 | 48.68814 | 9.19422 | 1313 ft | 0 kts | 74° |
| 2026-04-15 12:54 | 48.68815 | 9.19425 | 1313 ft | 1 kts | 74° |
| 2026-04-15 12:55 | 48.68821 | 9.19459 | 1312 ft | 5 kts | 74° |
| 2026-04-15 12:55 | 48.68835 | 9.19531 | 1311 ft | 10 kts | 73° |
| 2026-04-15 12:55 | 48.68861 | 9.19663 | 1309 ft | 15 kts | 73° |
| 2026-04-15 12:55 | 48.68891 | 9.19829 | 1304 ft | 18 kts | 86° |
| 2026-04-15 12:56 | 48.68789 | 9.19938 | 1295 ft | 17 kts | 153° |
| 2026-04-15 12:56 | 48.68691 | 9.19984 | 1289 ft | 8 kts | 164° |
| 2026-04-15 12:56 | 48.68678 | 9.19990 | 1288 ft | 0 kts | 164° |
| 2026-04-15 12:57 | 48.68676 | 9.19990 | 1288 ft | 2 kts | 164° |
| 2026-04-15 12:57 | 48.68628 | 9.20010 | 1287 ft | 12 kts | 164° |
| 2026-04-15 12:57 | 48.68584 | 9.20074 | 1283 ft | 10 kts | 78° |
| 2026-04-15 12:58 | 48.68609 | 9.20192 | 1281 ft | 15 kts | 73° |
| 2026-04-15 12:58 | 48.68693 | 9.20640 | 1271 ft | 83 kts | 74° |
| 2026-04-15 12:58 | 48.68917 | 9.21825 | 1246 ft | 149 kts | 74° |
| 2026-04-15 12:58 | 48.69217 | 9.23472 | 1636 ft | 165 kts | 77° |
| 2026-04-15 12:59 | 48.69833 | 9.26968 | 2840 ft | 188 kts | 74° |
| 2026-04-15 12:59 | 48.70214 | 9.28996 | 3269 ft | 211 kts | 75° |
| 2026-04-15 12:59 | 48.70633 | 9.31213 | 3956 ft | 224 kts | 74° |
| 2026-04-15 13:00 | 48.71067 | 9.33506 | 4866 ft | 229 kts | 75° |
| 2026-04-15 13:00 | 48.71509 | 9.35851 | 5791 ft | 234 kts | 75° |
| 2026-04-15 13:00 | 48.71967 | 9.38221 | 6758 ft | 235 kts | 74° |
| 2026-04-15 13:00 | 48.72675 | 9.40497 | 7535 ft | 245 kts | 53° |
| 2026-04-15 13:01 | 48.74033 | 9.42158 | 8194 ft | 262 kts | 23° |
| 2026-04-15 13:01 | 48.75844 | 9.42507 | 8993 ft | 272 kts | 352° |
| 2026-04-15 13:01 | 48.77718 | 9.41640 | 9614 ft | 287 kts | 339° |
| 2026-04-15 13:01 | 48.79602 | 9.40554 | 10417 ft | 296 kts | 338° |
| 2026-04-15 13:02 | 48.81596 | 9.39380 | 10771 ft | 319 kts | 338° |
| 2026-04-15 13:02 | 48.83747 | 9.38116 | 11067 ft | 343 kts | 339° |
| 2026-04-15 13:02 | 48.86021 | 9.36798 | 11640 ft | 354 kts | 339° |
| 2026-04-15 13:02 | 48.88341 | 9.35464 | 12400 ft | 359 kts | 339° |
| 2026-04-15 13:03 | 48.90695 | 9.34123 | 13179 ft | 363 kts | 339° |
| 2026-04-15 13:03 | 48.93070 | 9.32779 | 13961 ft | 367 kts | 339° |
| 2026-04-15 13:03 | 48.95476 | 9.31416 | 14666 ft | 370 kts | 339° |
| 2026-04-15 13:03 | 48.97900 | 9.30044 | 15342 ft | 374 kts | 339° |
| 2026-04-15 13:04 | 49.00350 | 9.28656 | 16007 ft | 378 kts | 339° |
| 2026-04-15 13:04 | 49.02822 | 9.27249 | 16663 ft | 382 kts | 338° |
| 2026-04-15 13:04 | 49.05326 | 9.25820 | 17322 ft | 386 kts | 338° |
| 2026-04-15 13:04 | 49.07852 | 9.24374 | 17987 ft | 390 kts | 339° |
| 2026-04-15 13:05 | 49.10421 | 9.22900 | 18352 ft | 402 kts | 338° |
| 2026-04-15 13:05 | 49.13093 | 9.21366 | 18481 ft | 418 kts | 338° |
| 2026-04-15 13:05 | 49.15857 | 9.19782 | 18697 ft | 429 kts | 339° |
| 2026-04-15 13:05 | 49.18690 | 9.18158 | 18834 ft | 440 kts | 338° |
| 2026-04-15 13:06 | 49.21582 | 9.16503 | 19114 ft | 446 kts | 338° |
| 2026-04-15 13:06 | 49.24496 | 9.14835 | 19509 ft | 448 kts | 339° |
| 2026-04-15 13:06 | 49.27425 | 9.13153 | 19881 ft | 450 kts | 339° |
| 2026-04-15 13:06 | 49.30356 | 9.11467 | 20112 ft | 451 kts | 338° |
| 2026-04-15 13:07 | 49.33251 | 9.09799 | 20192 ft | 451 kts | 338° |
| 2026-04-15 13:07 | 49.36189 | 9.08101 | 20203 ft | 450 kts | 338° |
| 2026-04-15 13:07 | 49.39160 | 9.06380 | 20060 ft | 451 kts | 338° |
| 2026-04-15 13:07 | 49.42084 | 9.04679 | 19695 ft | 449 kts | 338° |
| 2026-04-15 13:08 | 49.44956 | 9.02988 | 19346 ft | 447 kts | 336° |
| 2026-04-15 13:08 | 49.47685 | 9.00644 | 18992 ft | 443 kts | 322° |
| 2026-04-15 13:08 | 49.49899 | 8.97393 | 18645 ft | 440 kts | 311° |
| 2026-04-15 13:08 | 49.51946 | 8.93904 | 18193 ft | 438 kts | 311° |
| 2026-04-15 13:09 | 49.53929 | 8.90382 | 17661 ft | 433 kts | 307° |
| 2026-04-15 13:09 | 49.55713 | 8.86663 | 17141 ft | 430 kts | 305° |
| 2026-04-15 13:09 | 49.57429 | 8.82992 | 16635 ft | 426 kts | 304° |
| 2026-04-15 13:09 | 49.59135 | 8.79278 | 16075 ft | 423 kts | 304° |
| 2026-04-15 13:10 | 49.60820 | 8.75587 | 15428 ft | 419 kts | 304° |
| 2026-04-15 13:10 | 49.62487 | 8.71937 | 14802 ft | 414 kts | 304° |
| 2026-04-15 13:10 | 49.64160 | 8.68285 | 14191 ft | 409 kts | 304° |
| 2026-04-15 13:10 | 49.65794 | 8.64730 | 13470 ft | 404 kts | 304° |
| 2026-04-15 13:11 | 49.67408 | 8.61221 | 12580 ft | 398 kts | 304° |
| 2026-04-15 13:11 | 49.68999 | 8.57756 | 11619 ft | 393 kts | 304° |
| 2026-04-15 13:11 | 49.70040 | 8.55487 | 10992 ft | 390 kts | 304° |
| 2026-04-15 13:11 | 49.72103 | 8.50985 | 9658 ft | 385 kts | 304° |
| 2026-04-15 13:12 | 49.73137 | 8.48719 | 9024 ft | 380 kts | 304° |
| 2026-04-15 13:12 | 49.74643 | 8.45419 | 8189 ft | 370 kts | 304° |
| 2026-04-15 13:12 | 49.76094 | 8.42237 | 7671 ft | 354 kts | 304° |
| 2026-04-15 13:12 | 49.77479 | 8.39197 | 7211 ft | 338 kts | 304° |
| 2026-04-15 13:13 | 49.78804 | 8.36294 | 6819 ft | 323 kts | 304° |
| 2026-04-15 13:13 | 49.80075 | 8.33512 | 6440 ft | 310 kts | 304° |
| 2026-04-15 13:13 | 49.81281 | 8.30854 | 6309 ft | 295 kts | 303° |
| 2026-04-15 13:13 | 49.82428 | 8.28315 | 6175 ft | 281 kts | 304° |
| 2026-04-15 13:14 | 49.83500 | 8.25876 | 6041 ft | 267 kts | 299° |
| 2026-04-15 13:14 | 49.83995 | 8.23226 | 5923 ft | 251 kts | 270° |
| 2026-04-15 13:14 | 49.83933 | 8.20588 | 5751 ft | 240 kts | 264° |
| 2026-04-15 13:14 | 49.83808 | 8.18029 | 5508 ft | 236 kts | 264° |
| 2026-04-15 13:15 | 49.83682 | 8.15491 | 5407 ft | 236 kts | 264° |
| 2026-04-15 13:15 | 49.83587 | 8.12944 | 5329 ft | 237 kts | 270° |
| 2026-04-15 13:15 | 49.83873 | 8.10473 | 5250 ft | 231 kts | 282° |
| 2026-04-15 13:15 | 49.84285 | 8.08075 | 5177 ft | 230 kts | 284° |
| 2026-04-15 13:16 | 49.84993 | 8.05869 | 5093 ft | 232 kts | 312° |
| 2026-04-15 13:16 | 49.86326 | 8.04471 | 5021 ft | 233 kts | 339° |
| 2026-04-15 13:16 | 49.87879 | 8.03983 | 4954 ft | 233 kts | 1° |
| 2026-04-15 13:16 | 49.89507 | 8.04471 | 4877 ft | 238 kts | 25° |
| 2026-04-15 13:17 | 49.90870 | 8.05897 | 4793 ft | 236 kts | 49° |
| 2026-04-15 13:17 | 49.91746 | 8.07973 | 4706 ft | 233 kts | 70° |
| 2026-04-15 13:17 | 49.92320 | 8.10319 | 4625 ft | 232 kts | 71° |
| 2026-04-15 13:17 | 49.92890 | 8.12662 | 4543 ft | 232 kts | 71° |
| 2026-04-15 13:18 | 49.93462 | 8.15006 | 4462 ft | 232 kts | 72° |
| 2026-04-15 13:18 | 49.94033 | 8.17346 | 4387 ft | 231 kts | 72° |
| 2026-04-15 13:18 | 49.94601 | 8.19678 | 4312 ft | 231 kts | 71° |
| 2026-04-15 13:18 | 49.95175 | 8.22034 | 4228 ft | 230 kts | 70° |
| 2026-04-15 13:19 | 49.95732 | 8.24324 | 4147 ft | 221 kts | 70° |
| 2026-04-15 13:19 | 49.96265 | 8.26517 | 3961 ft | 214 kts | 71° |
| 2026-04-15 13:19 | 49.96788 | 8.28676 | 3694 ft | 213 kts | 70° |
| 2026-04-15 13:19 | 49.97302 | 8.30795 | 3429 ft | 213 kts | 70° |
| 2026-04-15 13:20 | 49.97823 | 8.32948 | 3124 ft | 211 kts | 71° |
| 2026-04-15 13:20 | 49.98331 | 8.35047 | 2857 ft | 204 kts | 70° |
| 2026-04-15 13:20 | 49.98823 | 8.37081 | 2583 ft | 199 kts | 70° |
| 2026-04-15 13:20 | 49.99302 | 8.39067 | 2318 ft | 192 kts | 70° |
| 2026-04-15 13:21 | 49.99759 | 8.40963 | 2059 ft | 182 kts | 70° |
| 2026-04-15 13:21 | 50.00182 | 8.42714 | 1832 ft | 162 kts | 70° |
| 2026-04-15 13:21 | 50.00553 | 8.44254 | 1615 ft | 144 kts | 70° |
| 2026-04-15 13:21 | 50.00891 | 8.45659 | 1430 ft | 135 kts | 71° |
| 2026-04-15 13:22 | 50.01216 | 8.47008 | 1236 ft | 132 kts | 70° |
| 2026-04-15 13:22 | 50.01539 | 8.48330 | 1043 ft | 129 kts | 70° |
| 2026-04-15 13:22 | 50.01854 | 8.49656 | 880 ft | 132 kts | 70° |
| 2026-04-15 13:22 | 50.02174 | 8.50993 | 701 ft | 131 kts | 69° |
| 2026-04-15 13:23 | 50.02489 | 8.52316 | 525 ft | 131 kts | 69° |
| 2026-04-15 13:23 | 50.02806 | 8.53632 | 364 ft | 129 kts | 68° |
| 2026-04-15 13:23 | 50.03080 | 8.54775 | 336 ft | 93 kts | 70° |
| 2026-04-15 13:23 | 50.03250 | 8.55484 | 349 ft | 43 kts | 70° |
| 2026-04-15 13:24 | 50.03410 | 8.55825 | 344 ft | 37 kts | 40° |
| 2026-04-15 13:24 | 50.03555 | 8.55979 | 354 ft | 19 kts | 0° |
| 2026-04-15 13:24 | 50.03574 | 8.55820 | 355 ft | 19 kts | 248° |
| 2026-04-15 13:24 | 50.03528 | 8.55622 | 353 ft | 20 kts | 251° |
| 2026-04-15 13:25 | 50.03478 | 8.55409 | 345 ft | 22 kts | 251° |
| 2026-04-15 13:25 | 50.03417 | 8.55160 | 347 ft | 27 kts | 249° |
| 2026-04-15 13:25 | 50.03401 | 8.54947 | 346 ft | 18 kts | 293° |
| 2026-04-15 13:25 | 50.03491 | 8.54823 | 349 ft | 18 kts | 339° |
| 2026-04-15 13:26 | 50.03610 | 8.54754 | 351 ft | 19 kts | 340° |
| 2026-04-15 13:26 | 50.03722 | 8.54686 | 351 ft | 14 kts | 327° |
| 2026-04-15 13:26 | 50.03711 | 8.54540 | 346 ft | 16 kts | 249° |
| 2026-04-15 13:26 | 50.03721 | 8.54379 | 345 ft | 17 kts | 330° |
| 2026-04-15 13:27 | 50.03812 | 8.54292 | 348 ft | 15 kts | 284° |
| 2026-04-15 13:27 | 50.03775 | 8.54123 | 349 ft | 18 kts | 250° |
| 2026-04-15 13:27 | 50.03730 | 8.53936 | 348 ft | 13 kts | 249° |
| 2026-04-15 13:27 | 50.03680 | 8.53929 | 344 ft | 6 kts | 160° |
| 2026-04-15 13:28 | 50.03652 | 8.53945 | 346 ft | 1 kts | 159° |
| 2026-04-15 13:28 | 50.03651 | 8.53946 | 345 ft | 0 kts | 158° |